Time;durP1;ratioP1;P1;durP2;ratioP2;P2;SDS_P1;SDS_P2;PMS_P1;PMS_P2;Temp;Humidity;BMP_temperature;BMP_pressure;BME280_temperature;BME280_humidity;BME280_pressure;Samples;Min_cycle;Max_cycle;Signal;HPM_P1;HPM_P2
2021/07/13 00:04:23;;;;;;;6.23;5.73;;;20.70;85.30;;;;;;10456862;28;20205;-26
2021/07/13 00:09:47;;;;;;;5.33;4.93;;;20.60;85.20;;;;;;10455639;28;20216;-30
2021/07/13 00:15:12;;;;;;;5.30;4.90;;;20.60;85.10;;;;;;10454433;28;20604;-27
2021/07/13 00:20:35;;;;;;;5.40;5.00;;;20.60;85.20;;;;;;10462991;28;20214;-27
2021/07/13 00:25:59;;;;;;;5.90;5.40;;;20.60;85.20;;;;;;10490186;28;20200;-26
2021/07/13 00:31:22;;;;;;;6.03;5.53;;;20.60;85.10;;;;;;10495905;28;20220;-25
2021/07/13 00:36:44;;;;;;;5.67;5.27;;;20.60;85.20;;;;;;10456905;28;20212;-28
2021/07/13 00:42:12;;;;;;;5.40;5.00;;;20.60;85.10;;;;;;10470314;28;20208;-29
2021/07/13 00:47:35;;;;;;;5.47;5.07;;;20.60;85.10;;;;;;10493212;28;20192;-28
2021/07/13 00:52:58;;;;;;;5.10;4.70;;;20.60;85.10;;;;;;10493540;28;20219;-28
2021/07/13 00:58:22;;;;;;;5.80;5.40;;;20.60;85.20;;;;;;10495356;28;20247;-27
2021/07/13 01:03:44;;;;;;;5.60;5.20;;;20.60;85.10;;;;;;10493500;28;20227;-29
2021/07/13 01:09:12;;;;;;;5.33;4.93;;;20.60;85.10;;;;;;10494985;28;20664;-29
2021/07/13 01:14:40;;;;;;;5.63;5.03;;;20.60;85.10;;;;;;10494519;28;20193;-29
2021/07/13 01:20:42;;;;;;;5.57;5.10;;;20.60;85.10;;;;;;10488660;28;20220;-30
2021/07/13 01:26:08;;;;;;;5.73;5.23;;;20.60;85.00;;;;;;10492687;28;20287;-25
2021/07/13 01:31:33;;;;;;;5.60;5.20;;;20.60;85.10;;;;;;10492297;28;20212;-26
2021/07/13 01:36:58;;;;;;;5.50;5.10;;;20.60;85.10;;;;;;10492959;28;20212;-22
2021/07/13 01:42:21;;;;;;;5.67;5.27;;;20.60;85.10;;;;;;10485925;28;20600;-27
2021/07/13 01:47:46;;;;;;;5.70;5.30;;;20.60;85.10;;;;;;10468600;28;20571;-26
2021/07/13 01:53:08;;;;;;;5.93;5.43;;;20.60;85.10;;;;;;10507346;22;20235;-31
2021/07/13 01:58:32;;;;;;;5.30;4.90;;;20.60;85.10;;;;;;10490890;28;20231;-31
2021/07/13 02:03:57;;;;;;;5.30;4.90;;;20.60;85.10;;;;;;10458082;28;20228;-29
2021/07/13 02:09:19;;;;;;;5.77;5.30;;;20.60;85.00;;;;;;10441996;28;20660;-32
2021/07/13 02:14:41;;;;;;;5.50;5.10;;;20.60;85.10;;;;;;10439801;28;20189;-32
2021/07/13 02:20:07;;;;;;;5.80;5.30;;;20.60;85.10;;;;;;10450920;28;20236;-32
2021/07/13 02:25:29;;;;;;;5.33;4.90;;;20.60;85.10;;;;;;10447788;28;20553;-31
2021/07/13 02:30:55;;;;;;;5.60;5.20;;;20.60;85.10;;;;;;10410346;28;20708;-29
2021/07/13 02:36:25;;;;;;;5.40;5.00;;;20.60;85.10;;;;;;10429654;28;20212;-30
2021/07/13 02:41:50;;;;;;;5.23;4.83;;;20.60;85.10;;;;;;10460281;28;20220;-30
2021/07/13 02:47:14;;;;;;;5.40;5.00;;;20.60;85.10;;;;;;10450441;28;20201;-29
2021/07/13 02:52:39;;;;;;;5.23;4.83;;;20.60;85.00;;;;;;10459939;28;20224;-30
2021/07/13 02:58:02;;;;;;;5.37;4.97;;;20.60;85.10;;;;;;10458974;28;20225;-29
2021/07/13 03:03:25;;;;;;;5.57;5.07;;;20.60;85.10;;;;;;10459009;28;20217;-29
2021/07/13 03:08:49;;;;;;;5.97;5.47;;;20.60;85.00;;;;;;10458785;28;20208;-29
2021/07/13 03:14:15;;;;;;;4.90;4.60;;;20.60;85.00;;;;;;10457913;28;20699;-31
2021/07/13 03:19:38;;;;;;;5.30;4.90;;;20.60;85.10;;;;;;10458718;28;20213;-31
2021/07/13 03:25:03;;;;;;;5.50;5.10;;;20.60;85.00;;;;;;10418043;28;20600;-31
2021/07/13 03:30:25;;;;;;;6.13;5.63;;;20.60;85.10;;;;;;10416525;28;20222;-31
2021/07/13 03:35:48;;;;;;;5.67;5.17;;;20.60;85.00;;;;;;10416327;28;20222;-33
2021/07/13 03:41:13;;;;;;;5.70;5.30;;;20.60;85.00;;;;;;10415978;28;20217;-31
2021/07/13 03:46:35;;;;;;;4.93;4.57;;;20.60;85.00;;;;;;10419560;28;20189;-30
2021/07/13 03:51:57;;;;;;;5.17;4.80;;;20.60;85.00;;;;;;10457350;28;20224;-30
2021/07/13 03:57:21;;;;;;;5.50;5.00;;;20.60;85.00;;;;;;10457097;28;20213;-31
2021/07/13 04:02:43;;;;;;;5.30;4.90;;;20.60;85.00;;;;;;10447783;28;20227;-29
2021/07/13 04:08:06;;;;;;;5.40;5.00;;;20.60;85.00;;;;;;10456074;28;20189;-29
2021/07/13 04:13:30;;;;;;;5.47;5.07;;;20.60;85.10;;;;;;10455320;28;20217;-29
2021/07/13 04:18:52;;;;;;;5.10;4.70;;;20.60;85.10;;;;;;10455255;28;20225;-29
2021/07/13 04:24:14;;;;;;;5.67;5.03;;;20.60;85.10;;;;;;10456295;28;20213;-30
2021/07/13 04:29:37;;;;;;;5.70;5.27;;;20.60;85.00;;;;;;10455423;28;20538;-29
2021/07/13 04:34:59;;;;;;;5.30;4.90;;;20.60;85.20;;;;;;10455916;28;20669;-30
2021/07/13 04:40:21;;;;;;;5.27;4.87;;;20.60;85.10;;;;;;10455799;28;20593;-31
2021/07/13 04:45:45;;;;;;;5.40;5.00;;;20.60;85.10;;;;;;10455257;28;20186;-32
2021/07/13 04:51:07;;;;;;;5.77;5.27;;;20.60;85.00;;;;;;10454334;28;20228;-29
2021/07/13 04:56:29;;;;;;;5.03;4.63;;;20.60;85.00;;;;;;10443651;28;20225;-30
2021/07/13 05:01:53;;;;;;;5.33;4.93;;;20.60;85.00;;;;;;10453656;28;20228;-30
2021/07/13 05:07:15;;;;;;;5.23;4.83;;;20.60;85.00;;;;;;10454363;28;20189;-31
2021/07/13 05:12:37;;;;;;;5.17;4.77;;;20.60;85.10;;;;;;10452710;28;20696;-31
2021/07/13 05:18:01;;;;;;;5.60;5.20;;;20.60;85.00;;;;;;10454138;28;20217;-29
2021/07/13 05:23:23;;;;;;;5.87;5.37;;;20.60;85.00;;;;;;10453888;28;20213;-30
2021/07/13 05:28:47;;;;;;;5.80;5.40;;;20.60;85.00;;;;;;10453849;28;20193;-31
2021/07/13 05:34:11;;;;;;;5.13;4.73;;;20.60;85.10;;;;;;10452132;28;20220;-30
2021/07/13 05:39:33;;;;;;;5.67;5.27;;;20.60;85.10;;;;;;10449482;28;20643;-30
2021/07/13 05:44:56;;;;;;;5.63;5.23;;;20.60;85.00;;;;;;10449959;28;20301;-30
2021/07/13 05:50:19;;;;;;;5.60;5.20;;;20.60;85.10;;;;;;10451004;28;20308;-31
2021/07/13 05:55:41;;;;;;;5.53;5.13;;;20.60;85.10;;;;;;10452730;28;20217;-31
2021/07/13 06:01:04;;;;;;;5.37;4.97;;;20.60;85.10;;;;;;10451263;28;20224;-30
2021/07/13 06:06:28;;;;;;;5.73;5.33;;;20.60;85.10;;;;;;10452079;28;20731;-32
2021/07/13 06:11:50;;;;;;;5.20;4.80;;;20.60;85.00;;;;;;10453992;28;20748;-31
2021/07/13 06:17:12;;;;;;;5.17;4.80;;;20.60;85.00;;;;;;10456725;28;20240;-32
2021/07/13 06:22:35;;;;;;;5.80;5.30;;;20.60;85.00;;;;;;10456368;28;20631;-31
2021/07/13 06:27:57;;;;;;;5.50;5.10;;;20.60;85.00;;;;;;10457625;28;20197;-29
2021/07/13 06:33:19;;;;;;;5.40;5.00;;;20.70;85.00;;;;;;10459801;28;20699;-31
2021/07/13 06:38:43;;;;;;;5.67;5.27;;;20.70;84.90;;;;;;10460170;28;20688;-31
2021/07/13 06:44:06;;;;;;;5.37;4.97;;;20.70;84.90;;;;;;10460047;28;20217;-32
2021/07/13 06:49:28;;;;;;;5.57;5.17;;;20.70;84.90;;;;;;10458119;28;20197;-29
2021/07/13 06:54:51;;;;;;;5.70;5.30;;;20.70;84.80;;;;;;10458540;28;20201;-31
2021/07/13 07:00:14;;;;;;;6.87;4.97;;;20.70;84.80;;;;;;10448219;28;20221;-32
2021/07/13 07:05:36;;;;;;;6.60;5.23;;;20.70;84.90;;;;;;10451109;28;20204;-30
2021/07/13 07:11:00;;;;;;;6.03;5.53;;;20.70;84.60;;;;;;10458982;28;20221;-32
2021/07/13 07:16:22;;;;;;;6.67;6.07;;;20.70;84.70;;;;;;10459103;28;20385;-32
2021/07/13 07:21:44;;;;;;;7.43;6.83;;;20.80;84.90;;;;;;10455805;28;20592;-31
2021/07/13 07:27:07;;;;;;;8.63;7.93;;;20.80;84.60;;;;;;10457673;28;20193;-30
2021/07/13 07:32:29;;;;;;;8.37;7.67;;;20.80;84.90;;;;;;10457414;28;20228;-29
2021/07/13 07:37:52;;;;;;;9.43;8.53;;;20.80;84.70;;;;;;10457056;28;20220;-31
2021/07/13 07:43:16;;;;;;;8.60;7.80;;;20.90;85.20;;;;;;10457443;28;20209;-30
2021/07/13 07:48:38;;;;;;;9.43;8.63;;;20.90;85.10;;;;;;10455328;28;20668;-30
2021/07/13 07:54:00;;;;;;;8.70;8.00;;;20.90;85.10;;;;;;10496625;22;20236;-23
2021/07/13 07:59:24;;;;;;;9.50;8.60;;;20.90;85.20;;;;;;10486420;28;20216;-23
2021/07/13 08:04:46;;;;;;;9.10;8.30;;;20.90;85.30;;;;;;10515750;28;20566;-22
2021/07/13 08:10:10;;;;;;;8.33;7.63;;;21.00;85.20;;;;;;10455620;28;20661;-24
2021/07/13 08:15:33;;;;;;;8.63;7.93;;;21.00;85.00;;;;;;10460117;28;20564;-23
2021/07/13 08:20:55;;;;;;;8.40;7.70;;;20.90;85.00;;;;;;10515055;28;20207;-23
2021/07/13 08:26:17;;;;;;;8.17;7.40;;;21.00;85.00;;;;;;10487550;28;20326;-22
2021/07/13 08:31:41;;;;;;;8.00;7.30;;;21.00;84.90;;;;;;10488711;28;20223;-22
2021/07/13 08:37:05;;;;;;;7.10;6.50;;;21.00;84.90;;;;;;10495799;28;20345;-23
2021/07/13 08:42:28;;;;;;;7.47;6.87;;;21.00;84.60;;;;;;10496139;28;20301;-23
2021/07/13 08:47:52;;;;;;;8.03;7.10;;;21.00;84.10;;;;;;10476302;28;20192;-23
2021/07/13 08:53:14;;;;;;;6.87;6.07;;;21.00;84.20;;;;;;10481824;28;20224;-23
2021/07/13 08:58:37;;;;;;;9.90;7.40;;;21.00;84.20;;;;;;10453910;28;20596;-23
2021/07/13 09:04:04;;;;;;;7.37;6.77;;;21.10;83.70;;;;;;10453391;28;20216;-23
2021/07/13 09:09:28;;;;;;;9.27;6.23;;;21.10;83.70;;;;;;10498634;28;20196;-25
2021/07/13 09:14:54;;;;;;;8.57;7.03;;;21.10;83.60;;;;;;10494790;28;20212;-23
2021/07/13 09:20:22;;;;;;;7.63;6.97;;;21.10;83.70;;;;;;10497346;28;20295;-24
2021/07/13 09:25:50;;;;;;;7.10;6.40;;;21.10;83.80;;;;;;10535573;28;20567;-23
2021/07/13 09:31:16;;;;;;;7.80;7.20;;;21.10;83.60;;;;;;10452000;28;20325;-24
2021/07/13 09:36:39;;;;;;;9.40;7.10;;;21.10;83.90;;;;;;10452137;28;20292;-25
2021/07/13 09:42:02;;;;;;;7.00;6.07;;;21.20;84.00;;;;;;10451938;28;20631;-23
2021/07/13 09:47:31;;;;;;;7.00;6.30;;;21.10;84.20;;;;;;10470812;28;20207;-22
2021/07/13 09:52:58;;;;;;;7.37;6.67;;;21.10;84.40;;;;;;10518600;28;20231;-24
2021/07/13 09:58:23;;;;;;;6.47;5.87;;;21.10;84.50;;;;;;10490234;28;20595;-23
2021/07/13 10:03:45;;;;;;;7.43;6.80;;;21.10;84.60;;;;;;10492530;28;20232;-23
2021/07/13 10:09:12;;;;;;;6.50;5.97;;;21.10;84.60;;;;;;10492839;28;20196;-21
2021/07/13 10:14:35;;;;;;;6.83;6.33;;;21.10;84.70;;;;;;10479628;28;20368;-24
2021/07/13 10:20:02;;;;;;;6.87;6.27;;;21.10;84.80;;;;;;10486816;28;20221;-23
2021/07/13 10:25:36;;;;;;;6.63;6.03;;;21.10;84.80;;;;;;10452094;28;20205;-22
2021/07/13 10:30:58;;;;;;;6.40;5.80;;;21.10;84.80;;;;;;10477672;28;20263;-23
2021/07/13 10:36:30;;;;;;;6.47;5.87;;;21.10;85.00;;;;;;10452713;28;20204;-23
2021/07/13 10:41:54;;;;;;;6.40;5.90;;;21.10;85.50;;;;;;10474134;28;20350;-24
2021/07/13 10:47:21;;;;;;;5.80;5.30;;;21.10;85.50;;;;;;10490079;28;20196;-22
2021/07/13 10:52:53;;;;;;;6.20;5.20;;;21.00;84.90;;;;;;10492019;28;20235;-23
2021/07/13 10:58:24;;;;;;;6.00;5.50;;;20.90;84.90;;;;;;10459951;28;20624;-22
2021/07/13 11:04:09;;;;;;;6.10;5.60;;;20.90;85.00;;;;;;10477497;28;20223;-23
2021/07/13 11:09:33;;;;;;;5.97;5.47;;;21.00;85.10;;;;;;10476863;28;20684;-23
2021/07/13 11:15:01;;;;;;;5.70;5.20;;;20.90;85.10;;;;;;10481427;28;20231;-23
2021/07/13 11:20:26;;;;;;;5.83;5.33;;;20.90;85.20;;;;;;10481848;28;20715;-22
2021/07/13 11:26:03;;;;;;;5.90;5.40;;;20.90;85.00;;;;;;10478001;28;20193;-24
2021/07/13 11:31:28;;;;;;;5.60;5.10;;;20.90;85.00;;;;;;10476447;28;20212;-23
2021/07/13 11:36:52;;;;;;;5.60;5.20;;;20.90;85.00;;;;;;10476762;28;20204;-23
2021/07/13 11:42:15;;;;;;;5.80;5.23;;;20.90;85.10;;;;;;10476071;28;20228;-23
2021/07/13 11:47:38;;;;;;;5.70;5.20;;;20.90;85.00;;;;;;10476344;28;20235;-23
2021/07/13 11:53:16;;;;;;;5.70;5.17;;;20.90;85.00;;;;;;10471146;28;20224;-23
2021/07/13 11:58:38;;;;;;;6.17;5.67;;;21.00;85.10;;;;;;10465794;28;20723;-24
2021/07/13 12:04:07;;;;;;;5.30;4.90;;;20.90;85.00;;;;;;10475018;28;20699;-25
2021/07/13 12:09:31;;;;;;;5.57;5.07;;;20.90;85.00;;;;;;10472807;28;20181;-23
2021/07/13 12:14:56;;;;;;;5.50;5.00;;;20.90;85.10;;;;;;10474273;28;20630;-23
2021/07/13 12:20:20;;;;;;;5.23;4.83;;;20.90;85.00;;;;;;10481723;28;20688;-23
2021/07/13 12:25:42;;;;;;;5.73;5.30;;;20.90;85.00;;;;;;10489582;28;20201;-23
2021/07/13 12:31:10;;;;;;;5.30;4.90;;;21.00;85.20;;;;;;10462958;28;20216;-23
2021/07/13 12:36:38;;;;;;;6.37;5.60;;;21.00;85.50;;;;;;10455308;28;20695;-23
2021/07/13 12:42:01;;;;;;;5.77;5.27;;;21.00;84.80;;;;;;10455518;28;20565;-22
2021/07/13 12:47:34;;;;;;;6.17;5.67;;;21.00;84.70;;;;;;10517622;28;20207;-22
2021/07/13 12:52:59;;;;;;;6.87;6.27;;;21.00;84.80;;;;;;10537401;28;20218;-23
2021/07/13 12:58:23;;;;;;;7.30;6.60;;;21.00;84.80;;;;;;10506455;28;20291;-24
2021/07/13 13:03:47;;;;;;;6.37;5.87;;;21.00;84.30;;;;;;10527036;28;20327;-23
2021/07/13 13:09:13;;;;;;;7.93;7.23;;;21.10;84.30;;;;;;10470765;28;20219;-24
2021/07/13 13:14:37;;;;;;;7.43;6.73;;;21.10;84.20;;;;;;10453786;28;20213;-24
2021/07/13 13:19:59;;;;;;;6.50;5.90;;;21.00;83.90;;;;;;10512930;28;20221;-23
2021/07/13 13:25:23;;;;;;;8.10;6.83;;;21.10;83.90;;;;;;10517491;28;20211;-23
2021/07/13 13:30:46;;;;;;;7.17;6.57;;;21.00;83.70;;;;;;10491843;28;20714;-23
2021/07/13 13:36:15;;;;;;;7.00;6.30;;;21.10;83.30;;;;;;10491316;28;20656;-22
2021/07/13 13:41:38;;;;;;;6.73;6.13;;;21.10;83.50;;;;;;10492245;28;20239;-23
2021/07/13 13:47:00;;;;;;;6.50;5.73;;;21.10;83.50;;;;;;10491550;28;20203;-23
2021/07/13 13:52:22;;;;;;;6.10;5.60;;;21.00;83.30;;;;;;10516889;22;20228;-29
2021/07/13 13:57:47;;;;;;;5.50;5.00;;;21.00;83.50;;;;;;10485070;28;20224;-31
2021/07/13 14:03:09;;;;;;;5.93;5.33;;;21.00;83.50;;;;;;10464025;28;20226;-29
2021/07/13 14:08:32;;;;;;;5.63;5.13;;;21.00;83.70;;;;;;10441116;28;20197;-33
2021/07/13 14:13:56;;;;;;;4.97;4.47;;;21.00;83.60;;;;;;10450983;28;20684;-30
2021/07/13 14:19:18;;;;;;;5.20;4.77;;;21.00;83.40;;;;;;10448414;28;20212;-32
2021/07/13 14:24:40;;;;;;;5.40;4.33;;;21.00;83.50;;;;;;10453186;28;20216;-30
2021/07/13 14:30:05;;;;;;;10.10;4.73;;;21.10;83.30;;;;;;10474288;28;20201;-30
2021/07/13 14:35:27;;;;;;;4.77;4.30;;;21.10;83.40;;;;;;10490395;28;20700;-29
2021/07/13 14:40:49;;;;;;;5.53;4.30;;;21.10;83.40;;;;;;10458772;28;20212;-28
2021/07/13 14:46:14;;;;;;;8.97;3.90;;;21.10;83.40;;;;;;10474210;28;20429;-30
2021/07/13 14:51:36;;;;;;;4.60;4.20;;;21.10;83.40;;;;;;10501198;28;20216;-29
2021/07/13 14:56:58;;;;;;;4.60;4.20;;;21.10;83.40;;;;;;10503011;28;20188;-31
2021/07/13 15:02:22;;;;;;;4.80;4.40;;;21.10;83.40;;;;;;10447761;28;20210;-31
2021/07/13 15:07:44;;;;;;;4.80;4.30;;;21.10;83.50;;;;;;10451952;28;20243;-28
2021/07/13 15:13:06;;;;;;;5.43;4.90;;;21.10;83.30;;;;;;10458653;28;20692;-29
2021/07/13 15:18:30;;;;;;;4.83;4.43;;;21.10;83.30;;;;;;10471316;28;20217;-30
2021/07/13 15:23:52;;;;;;;4.17;3.80;;;21.10;83.40;;;;;;10462580;28;20220;-31
2021/07/13 15:29:14;;;;;;;4.50;3.80;;;21.10;83.50;;;;;;10463869;28;20408;-31
2021/07/13 15:34:37;;;;;;;4.30;3.90;;;21.00;83.30;;;;;;10454391;28;20587;-32
2021/07/13 15:39:59;;;;;;;4.37;4.00;;;21.00;83.50;;;;;;10456927;28;20217;-28
2021/07/13 15:45:22;;;;;;;4.20;3.83;;;21.10;83.70;;;;;;10457172;28;20221;-29
2021/07/13 15:50:47;;;;;;;4.27;3.93;;;21.00;83.20;;;;;;10456972;28;20200;-30
2021/07/13 15:56:09;;;;;;;5.07;4.00;;;21.10;83.60;;;;;;10458163;28;20224;-28
2021/07/13 16:01:31;;;;;;;5.13;4.00;;;21.00;83.60;;;;;;10456267;28;20748;-30
2021/07/13 16:06:54;;;;;;;4.77;3.93;;;21.00;83.70;;;;;;10455426;28;20580;-29
2021/07/13 16:12:17;;;;;;;4.27;3.87;;;21.00;83.90;;;;;;10435648;28;20222;-28
2021/07/13 16:17:39;;;;;;;3.93;3.63;;;21.00;84.00;;;;;;10438098;28;20572;-29
2021/07/13 16:23:02;;;;;;;4.50;4.10;;;21.00;83.70;;;;;;10480167;28;20683;-31
2021/07/13 16:28:24;;;;;;;4.40;4.00;;;21.00;83.80;;;;;;10455841;28;20200;-30
2021/07/13 16:33:46;;;;;;;4.30;3.90;;;21.00;84.00;;;;;;10455535;28;20217;-29
2021/07/13 16:39:10;;;;;;;4.70;3.90;;;21.00;84.10;;;;;;10454380;28;20237;-29
2021/07/13 16:44:32;;;;;;;4.63;4.17;;;21.00;84.10;;;;;;10455307;28;20224;-30
2021/07/13 16:49:55;;;;;;;4.77;4.37;;;21.00;84.00;;;;;;10461046;28;20204;-29
2021/07/13 16:55:19;;;;;;;4.37;3.97;;;21.00;83.90;;;;;;10413443;28;20292;-29
2021/07/13 17:00:41;;;;;;;4.13;3.83;;;21.00;84.00;;;;;;10414049;28;20218;-28
2021/07/13 17:06:03;;;;;;;4.27;3.97;;;21.00;83.90;;;;;;10422516;28;20217;-28
2021/07/13 17:11:26;;;;;;;4.50;4.10;;;21.00;83.90;;;;;;10452835;28;20200;-30
2021/07/13 17:16:48;;;;;;;4.50;4.10;;;21.00;84.10;;;;;;10460411;28;20207;-29
2021/07/13 17:22:11;;;;;;;4.13;3.83;;;21.00;83.90;;;;;;10463607;28;20217;-29
2021/07/13 17:27:35;;;;;;;4.70;4.30;;;21.00;83.90;;;;;;10454662;28;20201;-30
2021/07/13 17:32:57;;;;;;;4.63;4.10;;;21.00;84.00;;;;;;10454663;28;20220;-32
2021/07/13 17:38:20;;;;;;;5.10;4.63;;;21.00;84.20;;;;;;10418163;28;20707;-29
2021/07/13 17:43:43;;;;;;;4.40;4.10;;;21.00;84.10;;;;;;10413118;28;20233;-29
2021/07/13 17:49:05;;;;;;;4.20;3.80;;;21.00;84.00;;;;;;10413215;28;20190;-30
2021/07/13 17:54:27;;;;;;;4.20;3.90;;;21.00;84.20;;;;;;10411759;28;20222;-28
2021/07/13 17:59:51;;;;;;;5.07;4.17;;;21.00;84.20;;;;;;10411531;28;20218;-29
2021/07/13 18:05:13;;;;;;;4.30;4.00;;;21.00;84.20;;;;;;10413733;28;20213;-30
2021/07/13 18:10:35;;;;;;;4.53;4.03;;;21.00;84.20;;;;;;10411969;28;20576;-30
2021/07/13 18:15:59;;;;;;;4.63;4.23;;;21.00;84.20;;;;;;10423807;28;20216;-30
2021/07/13 18:21:21;;;;;;;4.10;3.80;;;20.90;84.70;;;;;;10461051;28;20707;-29
2021/07/13 18:26:43;;;;;;;4.23;3.93;;;21.00;84.20;;;;;;10435161;28;20213;-28
2021/07/13 18:32:09;;;;;;;4.63;4.20;;;21.00;84.20;;;;;;10461715;28;20255;-28
2021/07/13 18:37:32;;;;;;;3.90;3.60;;;21.00;84.20;;;;;;10451004;28;20201;-31
2021/07/13 18:42:54;;;;;;;4.30;4.00;;;21.00;84.30;;;;;;10450966;28;20210;-29
2021/07/13 18:48:18;;;;;;;4.23;3.93;;;21.00;84.30;;;;;;10454281;28;20197;-29
2021/07/13 18:53:40;;;;;;;4.50;4.20;;;21.00;84.30;;;;;;10451269;28;20229;-29
2021/07/13 18:59:02;;;;;;;4.30;3.90;;;21.00;84.30;;;;;;10451381;28;20213;-35
2021/07/13 19:04:25;;;;;;;4.13;3.83;;;21.00;84.30;;;;;;10450859;28;20217;-28
2021/07/13 19:09:47;;;;;;;4.40;4.00;;;21.00;84.30;;;;;;10409838;28;20563;-28
2021/07/13 19:15:11;;;;;;;4.60;4.20;;;21.00;84.30;;;;;;10410565;28;20210;-28
2021/07/13 19:20:34;;;;;;;4.40;4.10;;;21.00;84.30;;;;;;10439745;28;20220;-30
2021/07/13 19:25:56;;;;;;;4.63;4.23;;;21.00;84.60;;;;;;10434712;28;20213;-29
2021/07/13 19:31:19;;;;;;;4.23;3.93;;;21.00;84.40;;;;;;10438369;28;20202;-29
2021/07/13 19:42:31;;;;;;;4.00;3.70;;;21.00;84.50;;;;;;10402733;28;20232;-29
2021/07/13 19:47:53;;;;;;;4.40;4.00;;;21.00;84.60;;;;;;10415915;28;20205;-31
2021/07/13 19:53:16;;;;;;;4.33;3.97;;;20.90;84.60;;;;;;10449548;22;20233;-32
2021/07/13 19:58:38;;;;;;;4.47;3.83;;;21.00;84.60;;;;;;10480932;28;20299;-28
2021/07/13 20:04:00;;;;;;;4.83;4.43;;;21.00;85.20;;;;;;10472888;28;20213;-25
2021/07/13 20:09:24;;;;;;;4.47;4.07;;;21.00;84.70;;;;;;10453252;28;20193;-28
2021/07/13 20:14:46;;;;;;;4.10;3.80;;;21.00;84.70;;;;;;10447634;28;20715;-26
2021/07/13 20:20:10;;;;;;;3.53;3.33;;;21.00;84.70;;;;;;10445623;28;20217;-26
2021/07/13 20:25:34;;;;;;;4.20;3.83;;;21.00;84.80;;;;;;10442276;28;20221;-27
2021/07/13 20:30:57;;;;;;;5.00;3.77;;;21.00;84.80;;;;;;10442682;28;20189;-28
2021/07/13 20:36:19;;;;;;;4.20;3.80;;;21.00;84.70;;;;;;10439176;28;20213;-32
2021/07/13 20:41:42;;;;;;;3.87;3.53;;;21.00;84.80;;;;;;10412908;28;20213;-30
2021/07/13 20:47:05;;;;;;;4.07;3.77;;;21.00;84.80;;;;;;10413059;28;20260;-31
2021/07/13 20:52:27;;;;;;;4.30;4.00;;;20.90;84.80;;;;;;10413300;28;20643;-27
2021/07/13 20:57:50;;;;;;;4.43;4.03;;;21.00;84.90;;;;;;10419192;28;20193;-30
2021/07/13 21:03:13;;;;;;;4.73;4.33;;;21.00;84.90;;;;;;10453209;28;20225;-31
2021/07/13 21:08:35;;;;;;;5.27;4.77;;;21.00;85.00;;;;;;10453563;28;20201;-27
2021/07/13 21:13:58;;;;;;;4.77;4.37;;;21.00;85.00;;;;;;10452710;28;20224;-26
2021/07/13 21:19:20;;;;;;;4.83;4.33;;;21.00;85.10;;;;;;10448852;28;20225;-27
2021/07/13 21:24:42;;;;;;;4.57;4.27;;;21.00;85.10;;;;;;10429319;28;20224;-27
2021/07/13 21:30:08;;;;;;;5.10;4.70;;;21.00;85.10;;;;;;10418727;28;20204;-29
2021/07/13 21:35:31;;;;;;;5.17;4.67;;;21.00;85.10;;;;;;10441250;28;20304;-28
2021/07/13 21:40:55;;;;;;;5.27;4.87;;;21.00;85.10;;;;;;10451740;28;20217;-31
2021/07/13 21:46:19;;;;;;;4.83;4.43;;;21.00;85.20;;;;;;10451902;28;20719;-28
2021/07/13 21:51:41;;;;;;;5.53;5.13;;;21.00;85.20;;;;;;10453091;28;20193;-29
2021/07/13 21:57:04;;;;;;;4.80;4.40;;;21.00;85.20;;;;;;10452693;28;20208;-26
2021/07/13 22:02:27;;;;;;;5.00;4.60;;;21.00;85.20;;;;;;10449267;28;20730;-26
2021/07/13 22:07:49;;;;;;;5.67;5.20;;;21.00;85.20;;;;;;10448098;28;20200;-25
2021/07/13 22:13:12;;;;;;;6.03;5.53;;;21.00;85.30;;;;;;10451418;28;20213;-27
2021/07/13 22:18:35;;;;;;;5.83;5.00;;;21.00;85.30;;;;;;10441861;28;20282;-28
2021/07/13 22:23:57;;;;;;;5.80;5.30;;;21.00;85.30;;;;;;10445178;28;20217;-26
2021/07/13 22:29:20;;;;;;;5.47;5.03;;;21.00;85.40;;;;;;10450560;28;20568;-28
2021/07/13 22:34:43;;;;;;;6.40;5.90;;;21.00;85.30;;;;;;10439214;28;20228;-28
2021/07/13 22:40:07;;;;;;;5.90;5.40;;;21.00;85.30;;;;;;10445645;28;20224;-27
2021/07/13 22:45:29;;;;;;;5.73;5.23;;;21.00;85.40;;;;;;10425803;28;20597;-30
2021/07/13 22:50:52;;;;;;;5.73;5.33;;;21.00;85.40;;;;;;10434106;28;20568;-30
2021/07/13 22:56:14;;;;;;;6.13;5.63;;;21.00;85.50;;;;;;10458593;28;20229;-28
2021/07/13 23:01:36;;;;;;;6.60;6.00;;;21.00;85.50;;;;;;10457747;28;20208;-26
2021/07/13 23:07:00;;;;;;;6.43;5.80;;;21.00;85.50;;;;;;10458582;28;20216;-29
2021/07/13 23:12:22;;;;;;;6.73;6.23;;;21.00;85.60;;;;;;10457950;28;20236;-28
2021/07/13 23:17:46;;;;;;;6.77;6.20;;;21.00;85.50;;;;;;10449407;28;20205;-26
2021/07/13 23:23:09;;;;;;;6.70;6.20;;;21.00;85.60;;;;;;10456515;28;20755;-29
2021/07/13 23:28:31;;;;;;;7.57;6.83;;;21.00;85.60;;;;;;10446177;28;20584;-28
2021/07/13 23:33:55;;;;;;;6.63;6.13;;;21.00;85.60;;;;;;10457323;28;20210;-30
2021/07/13 23:39:19;;;;;;;7.57;6.90;;;21.00;85.60;;;;;;10460892;28;20216;-29
2021/07/13 23:44:41;;;;;;;7.47;6.77;;;21.00;85.70;;;;;;10443906;28;20225;-25
2021/07/13 23:50:04;;;;;;;7.90;7.30;;;21.00;85.60;;;;;;10425752;28;20197;-28
2021/07/13 23:55:27;;;;;;;8.03;7.33;;;21.00;85.60;;;;;;10455287;28;20228;-28
